createdAt,value
2022-09-06T00:01:14.852Z,20.83
2022-09-06T00:04:17.612Z,20.80
2022-09-06T00:07:19.853Z,20.76
2022-09-06T00:10:22.587Z,20.72
2022-09-06T00:13:24.805Z,20.67
2022-09-06T00:16:30.506Z,20.63
2022-09-06T00:19:32.929Z,20.62
2022-09-06T00:22:36.522Z,20.59
2022-09-06T00:25:38.804Z,20.56
2022-09-06T00:28:41.544Z,20.55
2022-09-06T00:31:43.787Z,20.53
2022-09-06T00:34:46.556Z,20.49
2022-09-06T00:37:48.764Z,20.46
2022-09-06T00:40:51.455Z,20.43
2022-09-06T00:43:54.667Z,20.39
2022-09-06T00:46:57.383Z,20.40
2022-09-06T00:50:00.271Z,20.38
2022-09-06T00:53:03.149Z,20.38
2022-09-06T00:56:05.951Z,20.38
2022-09-06T00:59:08.687Z,20.36
2022-09-06T01:02:11.517Z,20.33
2022-09-06T01:05:14.828Z,20.31
2022-09-06T01:08:24.248Z,20.26
2022-09-06T01:11:45.983Z,20.28
2022-09-06T01:14:59.644Z,20.29
2022-09-06T01:18:05.991Z,20.25
2022-09-06T01:21:08.310Z,20.22
2022-09-06T01:24:11.002Z,20.20
2022-09-06T01:27:13.252Z,20.15
2022-09-06T01:30:18.259Z,20.14
2022-09-06T01:33:25.384Z,20.13
2022-09-06T01:36:32.756Z,20.15
2022-09-06T01:39:36.313Z,20.13
2022-09-06T01:42:40.582Z,20.12
2022-09-06T01:45:46.033Z,20.11
2022-09-06T01:48:54.653Z,20.11
2022-09-06T01:52:12.238Z,20.11
2022-09-06T01:55:20.484Z,20.06
2022-09-06T01:58:37.180Z,20.09
2022-09-06T02:01:39.951Z,20.06
2022-09-06T02:04:57.186Z,20.07
2022-09-06T02:08:08.016Z,20.03
2022-09-06T02:11:11.104Z,20.00
2022-09-06T02:14:16.779Z,19.96
2022-09-06T02:17:21.487Z,19.93
2022-09-06T02:20:25.951Z,19.89
2022-09-06T02:23:30.154Z,19.84
2022-09-06T02:26:35.376Z,19.79
2022-09-06T02:29:37.981Z,19.76
2022-09-06T02:32:44.436Z,19.73
2022-09-06T02:35:52.635Z,19.70
2022-09-06T02:38:55.122Z,19.68
2022-09-06T02:41:57.988Z,19.64
2022-09-06T02:45:00.385Z,19.60
2022-09-06T02:48:02.957Z,19.55
2022-09-06T02:51:05.968Z,19.48
2022-09-06T02:54:09.065Z,19.47
2022-09-06T02:57:11.453Z,19.42
2022-09-06T03:00:14.197Z,19.39
2022-09-06T03:03:16.692Z,19.34
2022-09-06T03:06:19.220Z,19.29
2022-09-06T03:09:21.606Z,19.29
2022-09-06T03:12:24.114Z,19.26
2022-09-06T03:15:26.627Z,19.23
2022-09-06T03:18:30.537Z,19.23
2022-09-06T03:21:32.969Z,19.20
2022-09-06T03:24:35.442Z,19.18
2022-09-06T03:27:37.939Z,19.15
2022-09-06T03:30:40.761Z,19.11
2022-09-06T03:33:43.272Z,19.10
2022-09-06T03:36:45.761Z,19.07
2022-09-06T03:39:48.406Z,19.04
2022-09-06T03:42:50.957Z,19.01
2022-09-06T03:45:55.017Z,18.99
2022-09-06T03:48:58.378Z,18.98
2022-09-06T03:52:01.013Z,18.99
2022-09-06T03:55:04.007Z,18.98
2022-09-06T03:58:06.394Z,18.98
2022-09-06T04:01:09.893Z,19.00
2022-09-06T04:04:12.748Z,18.98
2022-09-06T04:07:14.951Z,18.96
2022-09-06T04:10:17.757Z,18.97
2022-09-06T04:13:20.784Z,18.95
2022-09-06T04:16:23.513Z,18.95
2022-09-06T04:19:25.778Z,18.95
2022-09-06T04:22:28.516Z,18.95
2022-09-06T04:25:30.819Z,18.96
2022-09-06T04:28:33.559Z,18.95
2022-09-06T04:31:35.940Z,18.99
2022-09-06T04:34:38.811Z,18.99
2022-09-06T04:37:41.567Z,19.00
2022-09-06T04:40:44.331Z,19.00
2022-09-06T04:43:46.588Z,19.01
2022-09-06T04:46:49.279Z,19.04
2022-09-06T04:49:51.465Z,19.05
2022-09-06T04:52:54.138Z,19.07
2022-09-06T04:55:57.100Z,19.11
2022-09-06T04:58:59.769Z,19.14
2022-09-06T05:02:02.045Z,19.16
2022-09-06T05:05:05.336Z,19.19
2022-09-06T05:08:07.664Z,19.20
2022-09-06T05:11:11.219Z,19.22
2022-09-06T05:14:13.398Z,19.23
2022-09-06T05:17:16.390Z,19.27
2022-09-06T05:20:19.124Z,19.30
2022-09-06T05:23:22.156Z,19.29
2022-09-06T05:26:24.452Z,19.31
2022-09-06T05:29:30.505Z,19.30
2022-09-06T05:32:32.961Z,19.32
2022-09-06T05:35:36.052Z,19.35
2022-09-06T05:38:38.386Z,19.35
2022-09-06T05:41:41.087Z,19.37
2022-09-06T05:44:43.332Z,19.43
2022-09-06T05:47:46.167Z,19.48
2022-09-06T05:50:48.419Z,19.55
2022-09-06T05:53:51.151Z,19.61
2022-09-06T05:56:54.205Z,19.66
2022-09-06T05:59:56.580Z,19.69
2022-09-06T06:02:59.054Z,19.75
2022-09-06T06:06:01.845Z,19.82
2022-09-06T06:09:04.163Z,19.88
2022-09-06T06:12:06.975Z,19.94
2022-09-06T06:15:09.342Z,20.05
2022-09-06T06:18:12.110Z,20.11
2022-09-06T06:21:19.209Z,20.27
2022-09-06T06:24:22.296Z,20.39
2022-09-06T06:27:24.516Z,20.64
2022-09-06T06:30:27.413Z,20.69
2022-09-06T06:33:29.711Z,20.75
2022-09-06T06:36:33.886Z,20.86
2022-09-06T06:39:36.957Z,20.94
2022-09-06T06:42:40.105Z,21.29
2022-09-06T06:45:42.458Z,21.40
2022-09-06T06:48:45.980Z,21.62
2022-09-06T06:51:48.277Z,21.74
2022-09-06T06:54:51.118Z,21.96
2022-09-06T06:57:53.760Z,22.19
2022-09-06T07:00:56.721Z,22.35
2022-09-06T07:03:59.146Z,22.61
2022-09-06T07:13:34.858Z,23.44
2022-09-06T07:16:37.332Z,23.67
2022-09-06T07:26:29.403Z,24.42
2022-09-06T07:29:31.657Z,24.70
2022-09-06T07:32:34.674Z,24.90
2022-09-06T07:35:36.962Z,25.18
2022-09-06T07:38:40.526Z,25.66
2022-09-06T07:41:43.291Z,26.17
2022-09-06T07:44:46.029Z,26.59
2022-09-06T07:48:00.550Z,26.88
2022-09-06T07:51:11.344Z,27.49
2022-09-06T07:54:29.959Z,27.76
2022-09-06T07:57:33.415Z,28.24
2022-09-06T08:00:35.718Z,28.55
2022-09-06T08:03:38.440Z,28.84
2022-09-06T08:10:05.858Z,29.73
2022-09-06T08:13:08.098Z,29.91
2022-09-06T08:16:11.728Z,29.74
2022-09-06T08:19:14.177Z,30.55
2022-09-06T08:22:16.901Z,30.71
2022-09-06T08:25:19.123Z,30.20
2022-09-06T08:28:24.525Z,29.97
2022-09-06T08:31:30.464Z,29.99
2022-09-06T08:34:33.497Z,30.33
2022-09-06T08:37:35.728Z,30.90
2022-09-06T08:40:39.624Z,31.16
2022-09-06T08:47:16.250Z,30.73
2022-09-06T08:50:19.037Z,30.79
2022-09-06T08:53:21.935Z,31.06
2022-09-06T08:56:27.406Z,31.41
2022-09-06T08:59:35.916Z,31.84
2022-09-06T09:02:45.527Z,33.05
2022-09-06T09:05:51.868Z,34.69
2022-09-06T09:09:02.374Z,35.54
2022-09-06T09:12:05.716Z,35.86
2022-09-06T09:15:10.588Z,36.54
2022-09-06T09:18:14.268Z,35.95
2022-09-06T09:21:19.549Z,35.11
2022-09-06T09:24:22.716Z,34.38
2022-09-06T09:27:27.072Z,33.79
2022-09-06T09:33:48.463Z,32.90
2022-09-06T09:40:34.122Z,32.59
2022-09-06T09:43:36.858Z,32.94
2022-09-06T09:46:39.936Z,33.92
2022-09-06T09:49:42.785Z,34.70
2022-09-06T09:52:45.054Z,34.90
2022-09-06T09:55:48.565Z,36.07
2022-09-06T09:58:53.481Z,37.13
2022-09-06T10:02:01.428Z,37.88
2022-09-06T10:05:17.514Z,38.21
2022-09-06T10:08:22.049Z,38.27
2022-09-06T10:11:37.974Z,38.50
2022-09-06T10:14:44.964Z,38.76
2022-09-06T10:17:48.896Z,38.97
2022-09-06T10:20:54.883Z,39.67
2022-09-06T10:24:27.442Z,39.78
2022-09-06T10:27:31.098Z,39.98
2022-09-06T10:30:35.954Z,40.22
2022-09-06T10:33:56.747Z,40.68
2022-09-06T10:36:59.252Z,40.46
2022-09-06T10:40:12.200Z,40.01
2022-09-06T10:43:17.839Z,39.99
2022-09-06T10:46:22.188Z,39.81
2022-09-06T10:49:24.710Z,39.92
2022-09-06T10:52:32.912Z,39.99
2022-09-06T10:55:40.132Z,39.92
2022-09-06T11:02:17.106Z,39.65
2022-09-06T11:05:38.666Z,39.56
2022-09-06T11:12:01.573Z,38.53
2022-09-06T11:15:06.642Z,38.29
2022-09-06T11:18:11.896Z,38.73
2022-09-06T11:21:36.177Z,39.13
2022-09-06T11:24:57.590Z,39.45
2022-09-06T11:28:02.324Z,39.39
2022-09-06T11:31:05.789Z,39.72
2022-09-06T11:34:18.799Z,39.90
2022-09-06T11:37:32.793Z,39.26
2022-09-06T11:40:41.570Z,39.48
2022-09-06T11:43:47.054Z,39.59
2022-09-06T11:46:49.791Z,38.96
2022-09-06T11:49:52.536Z,38.98
2022-09-06T11:52:54.984Z,38.62
2022-09-06T11:56:00.502Z,38.45
2022-09-06T11:59:12.028Z,38.14
2022-09-06T12:02:33.691Z,37.85
2022-09-06T12:05:55.293Z,35.61
2022-09-06T12:08:58.504Z,34.85
2022-09-06T12:12:01.464Z,34.91
2022-09-06T12:15:22.466Z,33.28
2022-09-06T12:18:43.107Z,33.19
2022-09-06T12:21:47.540Z,33.91
2022-09-06T12:24:51.460Z,33.65
2022-09-06T12:27:56.404Z,34.20
2022-09-06T12:30:59.594Z,34.60
2022-09-06T12:34:07.911Z,35.11
2022-09-06T12:37:11.130Z,35.46
2022-09-06T12:40:14.424Z,34.96
2022-09-06T12:43:17.522Z,34.57
2022-09-06T12:46:20.097Z,34.07
2022-09-06T12:49:23.546Z,34.35
2022-09-06T12:52:25.940Z,33.94
2022-09-06T12:55:33.519Z,33.80
2022-09-06T12:58:36.497Z,34.22
2022-09-06T13:01:39.171Z,34.21
2022-09-06T13:04:42.770Z,34.29
2022-09-06T13:07:47.588Z,34.09
2022-09-06T13:10:50.189Z,34.40
2022-09-06T13:13:54.128Z,34.23
2022-09-06T13:16:59.969Z,33.63
2022-09-06T13:20:13.799Z,33.80
2022-09-06T13:23:20.860Z,33.92
2022-09-06T13:26:34.650Z,32.97
2022-09-06T13:29:39.825Z,32.72
2022-09-06T13:32:46.692Z,32.92
2022-09-06T13:35:50.900Z,32.24
2022-09-06T13:38:53.616Z,31.35
2022-09-06T13:41:56.828Z,31.09
2022-09-06T13:45:15.207Z,30.87
2022-09-06T13:48:28.702Z,30.59
2022-09-06T13:51:32.119Z,29.92
2022-09-06T13:54:34.848Z,29.42
2022-09-06T13:57:37.386Z,29.33
2022-09-06T14:00:41.257Z,29.30
2022-09-06T14:03:43.852Z,29.04
2022-09-06T14:06:46.858Z,28.67
2022-09-06T14:09:51.188Z,28.47
2022-09-06T14:12:53.832Z,28.22
2022-09-06T14:15:56.464Z,28.20
2022-09-06T14:18:59.177Z,28.21
2022-09-06T14:22:02.208Z,28.26
2022-09-06T14:25:04.871Z,28.19
2022-09-06T14:28:07.797Z,28.16
2022-09-06T14:31:14.693Z,28.07
2022-09-06T14:34:17.259Z,27.97
2022-09-06T14:37:21.651Z,27.94
2022-09-06T14:40:24.178Z,27.81
2022-09-06T14:43:26.619Z,27.75
2022-09-06T14:46:29.982Z,27.76
2022-09-06T14:49:32.945Z,27.78
2022-09-06T14:52:35.865Z,27.69
2022-09-06T14:55:39.700Z,27.67
2022-09-06T14:58:42.901Z,27.55
2022-09-06T15:01:45.887Z,27.48
2022-09-06T15:04:49.067Z,27.40
2022-09-06T15:07:51.561Z,27.38
2022-09-06T15:10:55.032Z,27.36
2022-09-06T15:13:58.536Z,27.43
2022-09-06T15:17:03.131Z,27.26
2022-09-06T15:20:06.014Z,27.22
2022-09-06T15:23:24.706Z,27.10
2022-09-06T15:26:27.681Z,27.33
2022-09-06T15:29:30.205Z,27.21
2022-09-06T15:32:32.591Z,26.96
2022-09-06T15:35:35.104Z,26.78
2022-09-06T15:38:41.744Z,26.51
2022-09-06T15:41:44.431Z,26.28
2022-09-06T15:44:47.153Z,26.11
2022-09-06T15:47:49.858Z,26.04
2022-09-06T15:50:52.484Z,25.86
2022-09-06T15:53:55.557Z,25.72
2022-09-06T15:56:58.129Z,25.57
2022-09-06T16:00:00.733Z,25.47
2022-09-06T16:03:03.216Z,25.42
2022-09-06T16:09:26.799Z,25.23
2022-09-06T16:12:29.286Z,25.19
2022-09-06T16:15:31.948Z,25.19
2022-09-06T16:18:35.323Z,25.17
2022-09-06T16:21:38.940Z,25.25
2022-09-06T16:24:41.398Z,25.44
2022-09-06T16:27:43.883Z,25.34
2022-09-06T16:30:46.439Z,25.32
2022-09-06T16:33:50.215Z,25.17
2022-09-06T16:36:53.243Z,25.11
2022-09-06T16:39:56.061Z,25.13
2022-09-06T16:42:58.631Z,25.13
2022-09-06T16:46:02.452Z,25.08
2022-09-06T16:49:05.981Z,25.01
2022-09-06T16:52:08.515Z,24.80
2022-09-06T16:55:11.324Z,24.80
2022-09-06T16:58:17.241Z,24.67
2022-09-06T17:01:20.042Z,24.55
2022-09-06T17:04:23.393Z,24.54
2022-09-06T17:07:25.904Z,24.53
2022-09-06T17:10:28.320Z,24.38
2022-09-06T17:13:31.077Z,24.46
2022-09-06T17:16:52.363Z,24.34
2022-09-06T17:19:55.117Z,24.33
2022-09-06T17:22:57.496Z,24.20
2022-09-06T17:26:00.448Z,24.25
2022-09-06T17:29:03.202Z,24.11
2022-09-06T17:32:09.982Z,23.99
2022-09-06T17:35:12.746Z,24.08
2022-09-06T17:38:16.318Z,24.13
2022-09-06T17:41:21.675Z,23.93
2022-09-06T17:44:25.526Z,23.88
2022-09-06T17:47:28.113Z,23.78
2022-09-06T17:50:31.546Z,23.80
2022-09-06T17:53:34.985Z,23.77
2022-09-06T17:56:37.624Z,23.71
2022-09-06T17:59:40.396Z,23.72
2022-09-06T18:02:42.986Z,23.72
2022-09-06T18:05:45.785Z,23.70
2022-09-06T18:08:49.108Z,23.70
2022-09-06T18:11:51.912Z,23.68
2022-09-06T18:14:54.240Z,23.66
2022-09-06T18:17:58.009Z,23.65
2022-09-06T18:21:01.621Z,23.62
2022-09-06T18:24:04.890Z,23.60
2022-09-06T18:27:07.155Z,23.51
2022-09-06T18:30:14.657Z,23.50
2022-09-06T18:33:17.783Z,23.44
2022-09-06T18:36:20.636Z,23.47
2022-09-06T18:39:22.891Z,23.24
2022-09-06T18:42:25.663Z,23.15
2022-09-06T18:45:28.489Z,23.08
2022-09-06T18:48:32.906Z,23.02
2022-09-06T18:51:35.320Z,23.03
2022-09-06T18:54:38.085Z,23.07
2022-09-06T18:57:40.353Z,23.03
2022-09-06T19:00:43.177Z,23.00
2022-09-06T19:03:45.520Z,22.97
2022-09-06T19:06:48.429Z,22.93
2022-09-06T19:09:50.664Z,22.80
2022-09-06T19:12:53.547Z,22.72
2022-09-06T19:15:56.667Z,22.68
2022-09-06T19:19:03.687Z,22.67
2022-09-06T19:22:05.953Z,22.66
2022-09-06T19:25:10.298Z,22.60
2022-09-06T19:28:12.563Z,22.64
2022-09-06T19:31:18.591Z,22.63
2022-09-06T19:34:21.038Z,22.58
2022-09-06T19:37:24.604Z,22.57
2022-09-06T19:40:26.895Z,22.51
2022-09-06T19:43:30.124Z,22.48
2022-09-06T19:46:32.516Z,22.42
2022-09-06T19:49:35.295Z,22.37
2022-09-06T19:52:37.535Z,22.33
2022-09-06T19:55:40.547Z,22.29
2022-09-06T19:58:43.402Z,22.24
2022-09-06T20:01:46.735Z,22.21
2022-09-06T20:04:49.379Z,22.17
2022-09-06T20:07:51.865Z,22.13
2022-09-06T20:10:55.487Z,22.10
2022-09-06T20:13:59.015Z,22.06
2022-09-06T20:17:29.302Z,22.05
2022-09-06T20:20:24.829Z,22.06
2022-09-06T20:23:28.897Z,22.01
2022-09-06T20:26:31.378Z,21.98
2022-09-06T20:29:33.847Z,21.98
2022-09-06T20:32:36.456Z,21.96
2022-09-06T20:35:39.031Z,21.93
2022-09-06T20:38:42.626Z,21.92
2022-09-06T20:41:45.782Z,21.84
2022-09-06T20:44:49.225Z,21.86
2022-09-06T20:47:52.303Z,21.84
2022-09-06T20:51:04.956Z,21.84
2022-09-06T20:54:07.650Z,21.85
2022-09-06T20:57:10.160Z,21.83
2022-09-06T21:00:14.483Z,21.84
2022-09-06T21:03:17.103Z,21.85
2022-09-06T21:06:20.572Z,21.82
2022-09-06T21:09:23.032Z,21.82
2022-09-06T21:12:25.572Z,21.81
2022-09-06T21:15:28.420Z,21.73
2022-09-06T21:18:31.792Z,21.76
2022-09-06T21:21:34.972Z,21.79
2022-09-06T21:24:37.464Z,21.78
2022-09-06T21:27:39.883Z,21.77
2022-09-06T21:30:42.353Z,21.77
2022-09-06T21:33:48.837Z,21.75
2022-09-06T21:36:51.310Z,21.74
2022-09-06T21:39:53.843Z,21.74
2022-09-06T21:42:56.454Z,21.73
2022-09-06T21:46:02.852Z,21.77
2022-09-06T21:49:07.411Z,21.76
2022-09-06T21:52:10.395Z,21.73
2022-09-06T21:55:15.571Z,21.69
2022-09-06T21:58:18.309Z,21.68
2022-09-06T22:01:21.559Z,21.65
2022-09-06T22:04:24.431Z,21.63
2022-09-06T22:07:26.628Z,21.59
2022-09-06T22:10:29.655Z,21.52
2022-09-06T22:13:32.076Z,21.51
2022-09-06T22:16:36.913Z,21.45
2022-09-06T22:19:39.520Z,21.42
2022-09-06T22:22:45.834Z,21.43
2022-09-06T22:25:48.066Z,21.40
2022-09-06T22:28:54.886Z,21.44
2022-09-06T22:31:57.757Z,21.32
2022-09-06T22:35:00.520Z,21.40
2022-09-06T22:38:02.720Z,21.27
2022-09-06T22:41:05.474Z,21.24
2022-09-06T22:44:08.155Z,21.20
2022-09-06T22:47:11.215Z,21.17
2022-09-06T22:50:13.463Z,21.13
2022-09-06T22:53:16.174Z,21.10
2022-09-06T22:56:18.459Z,21.06
2022-09-06T22:59:21.366Z,21.05
2022-09-06T23:02:23.563Z,21.09
2022-09-06T23:05:26.248Z,21.02
2022-09-06T23:08:29.227Z,20.97
2022-09-06T23:11:32.609Z,20.93
2022-09-06T23:14:35.256Z,20.88
2022-09-06T23:17:37.951Z,20.83
2022-09-06T23:20:40.507Z,20.81
2022-09-06T23:23:43.255Z,20.78
2022-09-06T23:26:45.451Z,20.74
2022-09-06T23:29:48.176Z,20.69
2022-09-06T23:32:50.415Z,20.67
2022-09-06T23:35:56.211Z,20.63
2022-09-06T23:38:58.602Z,20.59
2022-09-06T23:42:02.374Z,20.51
2022-09-06T23:45:05.990Z,20.50
2022-09-06T23:48:08.721Z,20.49
2022-09-06T23:51:11.431Z,20.46
2022-09-06T23:54:14.130Z,20.40
2022-09-06T23:57:16.387Z,20.37
